createdAt,value
2023-04-20T00:02:17.702Z,4.38
2023-04-20T00:04:45.766Z,4.00
2023-04-20T00:07:13.822Z,4.07
2023-04-20T00:09:41.733Z,4.30
2023-04-20T00:12:09.707Z,4.50
2023-04-20T00:14:37.759Z,4.35
2023-04-20T00:17:07.125Z,4.35
2023-04-20T00:19:35.044Z,5.38
2023-04-20T00:22:02.993Z,4.70
2023-04-20T00:24:30.987Z,4.38
2023-04-20T00:26:58.901Z,4.35
2023-04-20T00:29:26.992Z,4.65
2023-04-20T00:31:54.882Z,5.43
2023-04-20T00:34:24.257Z,5.18
2023-04-20T00:36:52.411Z,5.80
2023-04-20T00:39:20.397Z,5.45
2023-04-20T00:41:48.297Z,5.90
2023-04-20T00:44:16.223Z,4.43
2023-04-20T00:46:44.151Z,5.82
2023-04-20T00:49:12.644Z,5.45
2023-04-20T00:51:43.012Z,5.80
2023-04-20T00:54:11.563Z,5.55
2023-04-20T00:56:40.015Z,4.78
2023-04-20T00:59:08.648Z,4.75
2023-04-20T01:01:36.581Z,5.55
2023-04-20T01:04:04.672Z,5.97
2023-04-20T01:06:32.713Z,5.53
2023-04-20T01:09:02.049Z,5.90
2023-04-20T01:11:29.941Z,5.85
2023-04-20T01:13:57.871Z,6.82
2023-04-20T01:16:25.812Z,6.90
2023-04-20T01:18:53.794Z,6.78
2023-04-20T01:21:22.973Z,7.18
2023-04-20T01:23:52.321Z,7.47
2023-04-20T01:26:22.656Z,7.00
2023-04-20T01:28:50.611Z,6.00
2023-04-20T01:31:19.226Z,6.05
2023-04-20T01:33:47.184Z,6.63
2023-04-20T01:36:22.860Z,6.30
2023-04-20T01:38:53.493Z,5.85
2023-04-20T01:41:21.478Z,6.57
2023-04-20T01:43:49.478Z,6.30
2023-04-20T01:46:17.398Z,5.50
2023-04-20T01:48:45.451Z,6.38
2023-04-20T01:51:13.315Z,5.90
2023-04-20T01:53:41.274Z,6.35
2023-04-20T01:56:10.619Z,6.65
2023-04-20T01:58:38.554Z,6.05
2023-04-20T02:01:06.679Z,7.18
2023-04-20T02:03:34.785Z,6.07
2023-04-20T02:06:02.838Z,6.35
2023-04-20T02:08:30.858Z,6.00
2023-04-20T02:10:58.799Z,6.70
2023-04-20T02:13:28.212Z,6.30
2023-04-20T02:15:57.088Z,5.90
2023-04-20T02:18:25.655Z,7.18
2023-04-20T02:20:53.657Z,6.72
2023-04-20T02:23:21.564Z,6.40
2023-04-20T02:25:49.630Z,7.50
2023-04-20T02:28:17.632Z,7.90
2023-04-20T02:30:46.966Z,6.47
2023-04-20T02:33:14.942Z,7.30
2023-04-20T02:35:42.884Z,7.68
2023-04-20T02:38:10.818Z,7.32
2023-04-20T02:40:38.709Z,7.55
2023-04-20T02:43:06.701Z,6.97
2023-04-20T02:45:34.726Z,7.20
2023-04-20T02:48:04.136Z,7.38
2023-04-20T02:50:32.148Z,8.43
2023-04-20T02:53:00.117Z,8.07
2023-04-20T02:55:28.126Z,7.15
2023-04-20T02:57:56.058Z,6.45
2023-04-20T03:00:24.295Z,6.32
2023-04-20T03:02:52.808Z,7.63
2023-04-20T03:05:22.501Z,8.38
2023-04-20T03:07:50.733Z,7.32
2023-04-20T03:10:18.686Z,6.90
2023-04-20T03:12:46.660Z,6.90
2023-04-20T03:15:15.735Z,6.95
2023-04-20T03:17:43.700Z,6.80
2023-04-20T03:20:12.193Z,7.43
2023-04-20T03:22:41.535Z,7.15
2023-04-20T03:25:10.111Z,6.65
2023-04-20T03:27:38.025Z,7.60
2023-04-20T03:30:07.040Z,7.00
2023-04-20T03:32:34.981Z,7.13
2023-04-20T03:35:02.895Z,5.70
2023-04-20T03:37:30.863Z,7.07
2023-04-20T03:40:00.216Z,6.45
2023-04-20T03:42:28.204Z,7.28
2023-04-20T03:44:56.118Z,7.85
2023-04-20T03:47:24.051Z,8.05
2023-04-20T03:49:52.080Z,6.75
2023-04-20T03:52:20.047Z,7.25
2023-04-20T03:54:47.968Z,6.95
2023-04-20T03:57:17.228Z,6.95
2023-04-20T03:59:45.261Z,6.50
2023-04-20T04:02:13.714Z,7.07
2023-04-20T04:04:42.686Z,6.50
2023-04-20T04:07:10.630Z,6.30
2023-04-20T04:09:38.525Z,6.60
2023-04-20T04:12:07.103Z,6.53
2023-04-20T04:14:36.696Z,7.22
2023-04-20T04:17:04.623Z,7.07
2023-04-20T04:19:32.526Z,7.57
2023-04-20T04:22:00.501Z,6.55
2023-04-20T04:24:28.434Z,8.30
2023-04-20T04:26:58.554Z,7.80
2023-04-20T04:29:26.976Z,7.88
2023-04-20T04:31:56.265Z,7.55
2023-04-20T04:34:24.188Z,7.57
2023-04-20T04:36:52.058Z,7.78
2023-04-20T04:39:20.024Z,7.95
2023-04-20T04:41:48.318Z,7.60
2023-04-20T04:44:16.758Z,7.68
2023-04-20T04:46:47.461Z,8.23
2023-04-20T04:49:17.251Z,8.43
2023-04-20T04:51:45.668Z,8.55
2023-04-20T04:54:13.596Z,8.77
2023-04-20T04:56:41.482Z,9.55
2023-04-20T04:59:09.437Z,9.38
2023-04-20T05:01:37.396Z,9.95
2023-04-20T05:04:05.656Z,9.57
2023-04-20T05:06:34.975Z,9.20
2023-04-20T05:09:02.943Z,8.88
2023-04-20T05:11:31.807Z,8.48
2023-04-20T05:14:00.745Z,8.98
2023-04-20T05:16:28.645Z,8.35
2023-04-20T05:18:56.675Z,7.10
2023-04-20T05:21:24.576Z,7.15
2023-04-20T05:23:53.870Z,7.50
2023-04-20T05:26:21.734Z,7.38
2023-04-20T05:28:49.609Z,6.13
2023-04-20T05:31:17.539Z,5.80
2023-04-20T05:33:45.482Z,6.25
2023-04-20T05:36:13.388Z,6.68
2023-04-20T05:38:41.606Z,6.65
2023-04-20T05:41:10.931Z,6.47
2023-04-20T05:43:38.907Z,6.88
2023-04-20T05:46:08.061Z,7.72
2023-04-20T05:48:36.483Z,6.93
2023-04-20T05:51:04.428Z,6.78
2023-04-20T05:53:32.346Z,7.32
2023-04-20T05:56:00.210Z,7.07
2023-04-20T05:58:29.571Z,13.18
2023-04-20T06:00:58.049Z,31.60
2023-04-20T06:03:26.184Z,32.90
2023-04-20T06:05:54.562Z,19.25
2023-04-20T06:08:22.488Z,8.10
2023-04-20T06:10:54.884Z,8.30
2023-04-20T06:13:22.872Z,7.53
2023-04-20T06:15:52.993Z,8.05
2023-04-20T06:18:21.466Z,7.85
2023-04-20T06:20:49.470Z,7.95
2023-04-20T06:23:17.514Z,7.05
2023-04-20T06:25:45.629Z,7.88
2023-04-20T06:28:13.544Z,7.05
2023-04-20T06:30:41.429Z,7.95
2023-04-20T06:33:14.006Z,7.18
2023-04-20T06:35:42.116Z,8.02
2023-04-20T06:38:10.274Z,6.97
2023-04-20T06:40:38.283Z,7.22
2023-04-20T06:43:06.352Z,6.78
2023-04-20T06:45:36.768Z,6.65
2023-04-20T06:48:04.931Z,7.32
2023-04-20T06:50:34.485Z,6.88
2023-04-20T06:53:04.177Z,8.63
2023-04-20T06:55:32.480Z,8.68
2023-04-20T06:58:00.451Z,8.93
2023-04-20T07:00:28.436Z,9.05
2023-04-20T07:02:56.554Z,9.80
2023-04-20T07:05:25.123Z,8.63
2023-04-20T07:07:54.496Z,8.77
2023-04-20T07:10:22.507Z,7.97
2023-04-20T07:12:50.482Z,8.57
2023-04-20T07:15:18.370Z,12.63
2023-04-20T07:17:46.364Z,8.88
2023-04-20T07:20:14.363Z,9.55
2023-04-20T07:22:42.407Z,9.52
2023-04-20T07:25:11.945Z,12.70
2023-04-20T07:27:41.732Z,9.75
2023-04-20T07:30:11.498Z,8.98
2023-04-20T07:32:41.362Z,8.75
2023-04-20T07:35:10.269Z,8.65
2023-04-20T07:37:38.247Z,7.93
2023-04-20T07:40:07.339Z,15.40
2023-04-20T07:42:37.548Z,9.90
2023-04-20T07:45:06.394Z,7.70
2023-04-20T07:47:34.765Z,7.55
2023-04-20T07:50:03.290Z,9.73
2023-04-20T07:52:31.256Z,9.02
2023-04-20T07:54:59.695Z,8.65
2023-04-20T07:57:28.228Z,7.95
2023-04-20T07:59:57.516Z,8.98
2023-04-20T08:02:25.760Z,10.48
2023-04-20T08:04:54.117Z,8.30
2023-04-20T08:07:22.177Z,9.40
2023-04-20T08:09:55.104Z,9.02
2023-04-20T08:12:23.048Z,7.50
2023-04-20T08:14:51.842Z,8.18
2023-04-20T08:17:21.432Z,8.52
2023-04-20T08:19:49.409Z,8.15
2023-04-20T08:22:17.301Z,7.43
2023-04-20T08:24:45.221Z,7.70
2023-04-20T08:27:13.132Z,8.43
2023-04-20T08:29:41.920Z,8.65
2023-04-20T08:32:12.440Z,8.77
2023-04-20T08:35:19.480Z,8.32
2023-04-20T08:37:49.130Z,8.63
2023-04-20T08:40:19.927Z,8.18
2023-04-20T08:42:47.992Z,8.38
2023-04-20T08:45:16.054Z,8.05
2023-04-20T08:47:45.285Z,8.75
2023-04-20T08:50:13.250Z,9.50
2023-04-20T08:52:41.807Z,8.68
2023-04-20T08:55:11.549Z,8.45
2023-04-20T08:57:39.437Z,8.40
2023-04-20T09:00:12.216Z,8.27
2023-04-20T09:02:50.927Z,8.23
2023-04-20T09:05:26.727Z,8.45
2023-04-20T09:07:55.955Z,8.48
2023-04-20T09:10:25.893Z,8.45
2023-04-20T09:12:54.480Z,8.98
2023-04-20T09:15:26.938Z,8.88
2023-04-20T09:17:54.932Z,9.18
2023-04-20T09:20:30.522Z,9.82
2023-04-20T09:22:58.499Z,8.50
2023-04-20T09:25:29.106Z,8.48
2023-04-20T09:27:59.109Z,8.57
2023-04-20T09:30:38.408Z,7.72
2023-04-20T09:33:08.652Z,8.55
2023-04-20T09:35:38.457Z,8.95
2023-04-20T09:38:07.000Z,8.32
2023-04-20T09:40:37.593Z,8.45
2023-04-20T09:43:10.458Z,8.23
2023-04-20T09:45:44.672Z,8.05
2023-04-20T09:48:17.399Z,7.70
2023-04-20T09:50:50.063Z,7.85
2023-04-20T09:53:20.352Z,8.65
2023-04-20T09:55:51.563Z,8.40
2023-04-20T09:58:21.536Z,8.85
2023-04-20T10:00:50.714Z,8.85
2023-04-20T10:03:19.447Z,7.85
2023-04-20T10:05:47.605Z,8.52
2023-04-20T10:08:15.962Z,7.65
2023-04-20T10:10:46.204Z,9.15
2023-04-20T10:13:16.999Z,8.27
2023-04-20T10:15:44.880Z,9.15
2023-04-20T10:18:25.182Z,8.85
2023-04-20T10:21:06.625Z,7.47
2023-04-20T10:23:35.553Z,8.70
2023-04-20T10:26:04.201Z,8.50
2023-04-20T10:28:45.267Z,8.80
2023-04-20T10:31:15.818Z,8.73
2023-04-20T10:33:52.273Z,9.40
2023-04-20T10:36:30.340Z,9.63
2023-04-20T10:38:59.290Z,9.35
2023-04-20T10:41:27.982Z,8.15
2023-04-20T10:44:09.127Z,9.82
2023-04-20T10:46:38.014Z,8.80
2023-04-20T10:49:07.010Z,8.52
2023-04-20T10:51:38.219Z,9.00
2023-04-20T10:54:18.448Z,10.02
2023-04-20T10:56:55.933Z,9.13
2023-04-20T10:59:33.368Z,10.45
2023-04-20T11:02:17.317Z,9.43
2023-04-20T11:07:23.867Z,8.60
2023-04-20T11:10:00.470Z,9.68
2023-04-20T11:12:46.727Z,9.05
2023-04-20T11:15:36.980Z,9.57
2023-04-20T11:18:13.057Z,9.20
2023-04-20T11:20:56.785Z,8.75
2023-04-20T11:23:30.597Z,9.73
2023-04-20T11:28:48.532Z,8.52
2023-04-20T11:31:28.529Z,8.10
2023-04-20T11:34:10.360Z,7.65
2023-04-20T11:36:43.616Z,9.05
2023-04-20T11:39:17.412Z,8.20
2023-04-20T11:44:26.327Z,8.23
2023-04-20T11:47:00.319Z,8.55
2023-04-20T11:49:34.171Z,6.97
2023-04-20T11:52:10.456Z,7.53
2023-04-20T11:54:42.056Z,7.85
2023-04-20T11:57:11.551Z,8.20
2023-04-20T11:59:46.405Z,7.78
2023-04-20T12:02:39.258Z,7.57
2023-04-20T12:05:13.696Z,6.30
2023-04-20T12:07:53.799Z,7.22
2023-04-20T12:10:29.581Z,6.63
2023-04-20T12:13:13.548Z,7.18
2023-04-20T12:15:45.460Z,8.02
2023-04-20T12:21:11.469Z,7.25
2023-04-20T12:26:38.295Z,6.55
2023-04-20T12:29:09.862Z,5.38
2023-04-20T12:31:47.362Z,5.95
2023-04-20T12:34:26.692Z,4.70
2023-04-20T12:36:58.323Z,5.10
2023-04-20T12:39:28.486Z,4.57
2023-04-20T12:42:04.830Z,5.85
2023-04-20T12:44:36.618Z,5.40
2023-04-20T12:47:10.285Z,4.93
2023-04-20T12:52:26.696Z,4.80
2023-04-20T12:54:57.724Z,3.75
2023-04-20T12:57:35.680Z,3.55
2023-04-20T13:00:19.553Z,3.60
2023-04-20T13:03:04.341Z,4.10
2023-04-20T13:05:51.368Z,4.13
2023-04-20T13:08:28.861Z,4.32
2023-04-20T13:11:05.282Z,5.00
2023-04-20T13:13:45.347Z,4.53
2023-04-20T13:16:21.372Z,4.20
2023-04-20T13:18:52.435Z,4.10
2023-04-20T13:21:35.617Z,3.97
2023-04-20T13:24:28.884Z,4.38
2023-04-20T13:27:01.967Z,4.13
2023-04-20T13:29:37.528Z,4.22
2023-04-20T13:32:14.452Z,3.75
2023-04-20T13:34:45.470Z,3.28
2023-04-20T13:40:06.371Z,2.15
2023-04-20T13:42:38.091Z,2.38
2023-04-20T13:45:11.041Z,1.75
2023-04-20T13:48:07.006Z,1.75
2023-04-20T13:50:40.590Z,1.63
2023-04-20T13:53:15.489Z,1.95
2023-04-20T13:55:47.504Z,1.80
2023-04-20T13:58:26.175Z,1.73
2023-04-20T14:00:58.308Z,1.67
2023-04-20T14:03:30.882Z,1.50
2023-04-20T14:06:03.300Z,3.20
2023-04-20T14:08:39.504Z,1.77
2023-04-20T14:11:13.287Z,1.90
2023-04-20T14:13:50.021Z,1.38
2023-04-20T14:16:29.151Z,1.85
2023-04-20T14:19:00.807Z,1.48
2023-04-20T14:21:35.100Z,1.40
2023-04-20T14:24:16.953Z,1.42
2023-04-20T14:26:51.184Z,1.30
2023-04-20T14:29:23.746Z,0.70
2023-04-20T14:32:00.958Z,0.63
2023-04-20T14:34:31.862Z,0.73
2023-04-20T14:37:09.365Z,0.80
2023-04-20T14:39:45.494Z,0.75
2023-04-20T14:42:20.578Z,0.60
2023-04-20T14:44:53.100Z,1.08
2023-04-20T14:47:26.714Z,0.73
2023-04-20T14:50:04.790Z,1.20
2023-04-20T14:52:37.225Z,1.10
2023-04-20T14:55:09.839Z,1.02
2023-04-20T14:57:40.095Z,1.10
2023-04-20T15:00:18.213Z,1.27
2023-04-20T15:02:55.618Z,1.10
2023-04-20T15:05:37.433Z,1.00
2023-04-20T15:08:07.908Z,1.20
2023-04-20T15:10:40.354Z,0.90
2023-04-20T15:13:28.247Z,0.82
2023-04-20T15:16:02.251Z,1.90
2023-04-20T15:18:32.356Z,0.82
2023-04-20T15:23:54.502Z,0.80
2023-04-20T15:26:33.192Z,0.80
2023-04-20T15:29:05.608Z,1.20
2023-04-20T15:31:36.475Z,1.00
2023-04-20T15:34:11.715Z,0.98
2023-04-20T15:36:42.235Z,0.95
2023-04-20T15:39:13.485Z,1.30
2023-04-20T15:41:51.511Z,0.98
2023-04-20T15:44:20.919Z,0.88
2023-04-20T15:47:15.780Z,0.90
2023-04-20T15:50:01.203Z,0.70
2023-04-20T15:52:35.620Z,0.95
2023-04-20T15:55:14.381Z,0.70
2023-04-20T15:57:51.349Z,0.82
2023-04-20T16:00:21.230Z,1.00
2023-04-20T16:02:59.087Z,0.70
2023-04-20T16:05:29.755Z,0.68
2023-04-20T16:08:01.041Z,0.60
2023-04-20T16:10:33.047Z,0.52
2023-04-20T16:13:10.257Z,0.75
2023-04-20T16:15:50.075Z,0.70
2023-04-20T16:18:28.114Z,0.70
2023-04-20T16:21:02.225Z,0.88
2023-04-20T16:23:39.448Z,0.68
2023-04-20T16:26:29.062Z,0.60
2023-04-20T16:29:03.553Z,0.73
2023-04-20T16:31:34.210Z,0.30
2023-04-20T16:34:06.952Z,0.40
2023-04-20T16:36:41.332Z,0.45
2023-04-20T16:41:45.539Z,0.50
2023-04-20T16:44:22.726Z,0.38
2023-04-20T16:46:53.135Z,0.25
2023-04-20T16:49:31.244Z,0.47
2023-04-20T16:52:06.233Z,0.47
2023-04-20T16:54:39.808Z,0.40
2023-04-20T17:00:08.992Z,0.80
2023-04-20T17:02:39.857Z,0.70
2023-04-20T17:05:10.497Z,0.70
2023-04-20T17:07:48.349Z,0.60
2023-04-20T17:10:17.791Z,0.30
2023-04-20T17:12:51.083Z,0.70
2023-04-20T17:15:26.801Z,0.60
2023-04-20T17:18:16.959Z,0.50
2023-04-20T17:20:50.466Z,0.40
2023-04-20T17:23:24.590Z,0.40
2023-04-20T17:25:55.481Z,0.63
2023-04-20T17:28:26.330Z,0.93
2023-04-20T17:31:01.122Z,0.75
2023-04-20T17:33:40.844Z,0.70
2023-04-20T17:36:13.297Z,0.50
2023-04-20T17:38:45.956Z,0.75
2023-04-20T17:41:21.010Z,0.60
2023-04-20T17:43:54.410Z,0.70
2023-04-20T17:46:27.292Z,0.77
2023-04-20T17:48:56.783Z,1.10
2023-04-20T17:51:27.912Z,0.75
2023-04-20T17:53:59.448Z,1.20
2023-04-20T17:56:41.112Z,0.80
2023-04-20T17:59:17.701Z,0.93
2023-04-20T18:01:52.188Z,1.02
2023-04-20T18:04:27.334Z,1.05
2023-04-20T18:07:00.058Z,1.27
2023-04-20T18:09:47.424Z,1.25
2023-04-20T18:12:25.001Z,1.65
2023-04-20T18:14:59.295Z,0.85
2023-04-20T18:17:31.237Z,0.90
2023-04-20T18:20:02.620Z,0.90
2023-04-20T18:22:36.070Z,1.10
2023-04-20T18:25:06.693Z,0.90
2023-04-20T18:27:37.898Z,0.80
2023-04-20T18:30:15.197Z,0.35
2023-04-20T18:32:51.810Z,0.63
2023-04-20T18:35:23.618Z,0.75
2023-04-20T18:37:54.508Z,1.25
2023-04-20T18:40:26.701Z,1.20
2023-04-20T18:43:03.391Z,1.30
2023-04-20T18:45:44.818Z,1.45
2023-04-20T18:48:18.316Z,0.85
2023-04-20T18:50:50.361Z,0.85
2023-04-20T18:53:22.801Z,1.05
2023-04-20T18:55:54.544Z,0.70
2023-04-20T18:58:25.250Z,0.80
2023-04-20T19:00:57.523Z,0.75
2023-04-20T19:03:35.899Z,1.10
2023-04-20T19:06:19.700Z,0.75
2023-04-20T19:08:51.933Z,0.80
2023-04-20T19:11:22.713Z,1.10
2023-04-20T19:13:58.688Z,0.93
2023-04-20T19:16:35.513Z,1.05
2023-04-20T19:19:09.820Z,1.08
2023-04-20T19:21:42.245Z,1.08
2023-04-20T19:24:15.303Z,0.73
2023-04-20T19:26:47.983Z,0.90
2023-04-20T19:29:21.670Z,0.90
2023-04-20T19:31:51.565Z,1.13
2023-04-20T19:34:35.512Z,0.93
2023-04-20T19:37:07.622Z,1.30
2023-04-20T19:39:38.324Z,0.90
2023-04-20T19:42:09.191Z,1.00
2023-04-20T19:44:42.468Z,1.00
2023-04-20T19:47:18.090Z,1.02
2023-04-20T19:49:52.771Z,1.58
2023-04-20T19:52:26.556Z,1.92
2023-04-20T19:54:55.971Z,1.50
2023-04-20T19:57:31.852Z,1.80
2023-04-20T20:00:11.475Z,1.30
2023-04-20T20:02:45.377Z,1.73
2023-04-20T20:05:30.250Z,1.80
2023-04-20T20:08:03.765Z,2.15
2023-04-20T20:10:38.123Z,1.77
2023-04-20T20:13:09.548Z,1.33
2023-04-20T20:15:39.831Z,1.50
2023-04-20T20:18:16.444Z,1.45
2023-04-20T20:20:51.659Z,1.52
2023-04-20T20:23:36.491Z,1.60
2023-04-20T20:26:19.591Z,1.58
2023-04-20T20:29:01.679Z,1.75
2023-04-20T20:31:39.482Z,1.77
2023-04-20T20:34:09.788Z,1.30
2023-04-20T20:36:43.723Z,1.42
2023-04-20T20:39:19.971Z,1.88
2023-04-20T20:42:00.489Z,1.83
2023-04-20T20:44:33.085Z,1.77
2023-04-20T20:47:16.238Z,1.38
2023-04-20T20:49:49.522Z,2.05
2023-04-20T20:52:30.931Z,1.83
2023-04-20T20:55:00.452Z,1.95
2023-04-20T20:57:30.931Z,1.60
2023-04-20T21:00:20.951Z,1.70
2023-04-20T21:02:51.342Z,1.65
2023-04-20T21:05:27.263Z,2.00
2023-04-20T21:08:09.016Z,1.77
2023-04-20T21:10:43.919Z,1.90
2023-04-20T21:13:16.089Z,1.70
2023-04-20T21:15:48.994Z,1.75
2023-04-20T21:18:19.733Z,1.30
2023-04-20T21:20:57.801Z,1.55
2023-04-20T21:23:47.266Z,1.63
2023-04-20T21:26:35.295Z,2.13
2023-04-20T21:29:15.157Z,1.38
2023-04-20T21:31:52.459Z,1.52
2023-04-20T21:34:23.109Z,1.48
2023-04-20T21:36:54.573Z,1.50
2023-04-20T21:39:32.352Z,1.52
2023-04-20T21:42:10.537Z,1.77
2023-04-20T21:44:42.350Z,1.60
2023-04-20T21:47:12.787Z,1.35
2023-04-20T21:49:51.314Z,1.40
2023-04-20T21:52:23.364Z,1.40
2023-04-20T21:54:59.477Z,1.30
2023-04-20T21:57:37.675Z,1.48
2023-04-20T22:00:12.288Z,1.40
2023-04-20T22:02:43.582Z,2.05
2023-04-20T22:05:20.499Z,2.17
2023-04-20T22:07:53.011Z,1.70
2023-04-20T22:10:26.990Z,1.88
2023-04-20T22:13:00.356Z,1.67
2023-04-20T22:15:31.021Z,2.03
2023-04-20T22:18:08.419Z,1.80
2023-04-20T22:20:52.353Z,1.40
2023-04-20T22:23:26.145Z,1.50
2023-04-20T22:26:09.192Z,1.38
2023-04-20T22:28:40.637Z,1.52
2023-04-20T22:31:08.672Z,1.00
2023-04-20T22:33:36.574Z,1.48
2023-04-20T22:36:05.097Z,1.88
2023-04-20T22:38:35.677Z,1.58
2023-04-20T22:41:05.152Z,1.42
2023-04-20T22:43:33.005Z,1.35
2023-04-20T22:46:00.901Z,1.45
2023-04-20T22:48:29.782Z,1.20
2023-04-20T22:51:00.777Z,1.33
2023-04-20T22:53:29.894Z,1.20
2023-04-20T22:56:05.971Z,1.30
2023-04-20T22:58:33.987Z,1.38
2023-04-20T23:01:01.984Z,1.38
2023-04-20T23:03:30.154Z,2.22
2023-04-20T23:05:59.267Z,1.35
2023-04-20T23:08:28.389Z,1.63
2023-04-20T23:10:56.407Z,1.63
2023-04-20T23:13:26.521Z,1.23
2023-04-20T23:15:54.648Z,1.67
2023-04-20T23:18:22.581Z,1.95
2023-04-20T23:20:50.745Z,2.13
2023-04-20T23:23:18.733Z,1.83
2023-04-20T23:25:46.632Z,1.65
2023-04-20T23:28:14.482Z,1.80
2023-04-20T23:30:43.785Z,1.63
2023-04-20T23:33:11.757Z,1.92
2023-04-20T23:35:39.744Z,1.50
2023-04-20T23:38:07.639Z,1.80
2023-04-20T23:40:35.652Z,1.70
2023-04-20T23:43:03.533Z,1.90
2023-04-20T23:45:31.464Z,1.60
2023-04-20T23:48:00.826Z,1.77
2023-04-20T23:50:28.801Z,1.60
2023-04-20T23:52:56.881Z,2.17
2023-04-20T23:55:24.990Z,1.40
2023-04-20T23:57:53.438Z,1.75
